sensor_id;sensor_type;location;lat;lon;timestamp;P1;durP1;ratioP1;P2;durP2;ratioP2
83117;SDS011;73000;51.784;4.660;2023-11-21T00:00:38;20.35;;;8.68;;
83117;SDS011;73000;51.784;4.660;2023-11-21T00:03:03;17.67;;;8.03;;
83117;SDS011;73000;51.784;4.660;2023-11-21T00:05:29;22.63;;;7.72;;
83117;SDS011;73000;51.784;4.660;2023-11-21T00:07:54;18.88;;;8.00;;
83117;SDS011;73000;51.784;4.660;2023-11-21T00:10:19;18.60;;;7.40;;
83117;SDS011;73000;51.784;4.660;2023-11-21T00:12:45;19.75;;;7.60;;
83117;SDS011;73000;51.784;4.660;2023-11-21T00:15:13;18.92;;;8.10;;
83117;SDS011;73000;51.784;4.660;2023-11-21T00:17:38;20.88;;;7.85;;
83117;SDS011;73000;51.784;4.660;2023-11-21T00:20:05;22.88;;;7.80;;
83117;SDS011;73000;51.784;4.660;2023-11-21T00:22:32;24.27;;;8.32;;
83117;SDS011;73000;51.784;4.660;2023-11-21T00:24:58;22.35;;;8.77;;
83117;SDS011;73000;51.784;4.660;2023-11-21T00:27:23;19.83;;;9.03;;
83117;SDS011;73000;51.784;4.660;2023-11-21T00:29:49;20.97;;;8.20;;
83117;SDS011;73000;51.784;4.660;2023-11-21T00:32:14;18.67;;;7.20;;
83117;SDS011;73000;51.784;4.660;2023-11-21T00:34:39;18.03;;;7.77;;
83117;SDS011;73000;51.784;4.660;2023-11-21T00:37:05;20.33;;;8.30;;
83117;SDS011;73000;51.784;4.660;2023-11-21T00:39:30;18.85;;;7.70;;
83117;SDS011;73000;51.784;4.660;2023-11-21T00:41:55;21.13;;;8.38;;
83117;SDS011;73000;51.784;4.660;2023-11-21T00:44:21;20.13;;;8.40;;
83117;SDS011;73000;51.784;4.660;2023-11-21T00:46:46;23.63;;;8.63;;
83117;SDS011;73000;51.784;4.660;2023-11-21T00:49:11;28.90;;;9.37;;
83117;SDS011;73000;51.784;4.660;2023-11-21T00:51:36;28.33;;;10.13;;
83117;SDS011;73000;51.784;4.660;2023-11-21T00:54:02;24.60;;;8.70;;
83117;SDS011;73000;51.784;4.660;2023-11-21T00:56:27;19.10;;;8.30;;
83117;SDS011;73000;51.784;4.660;2023-11-21T00:58:53;28.63;;;9.30;;
83117;SDS011;73000;51.784;4.660;2023-11-21T01:01:19;21.60;;;8.93;;
83117;SDS011;73000;51.784;4.660;2023-11-21T01:03:48;26.58;;;9.20;;
83117;SDS011;73000;51.784;4.660;2023-11-21T01:06:14;27.33;;;8.65;;
83117;SDS011;73000;51.784;4.660;2023-11-21T01:08:39;27.08;;;9.73;;
83117;SDS011;73000;51.784;4.660;2023-11-21T01:11:05;30.20;;;9.63;;
83117;SDS011;73000;51.784;4.660;2023-11-21T01:13:33;25.15;;;10.48;;
83117;SDS011;73000;51.784;4.660;2023-11-21T01:15:58;30.85;;;10.52;;
83117;SDS011;73000;51.784;4.660;2023-11-21T01:18:23;30.80;;;10.93;;
83117;SDS011;73000;51.784;4.660;2023-11-21T01:20:50;27.60;;;10.27;;
83117;SDS011;73000;51.784;4.660;2023-11-21T01:23:17;30.77;;;10.23;;
83117;SDS011;73000;51.784;4.660;2023-11-21T01:25:43;32.95;;;11.52;;
83117;SDS011;73000;51.784;4.660;2023-11-21T01:28:08;27.40;;;10.90;;
83117;SDS011;73000;51.784;4.660;2023-11-21T01:30:33;27.63;;;10.90;;
83117;SDS011;73000;51.784;4.660;2023-11-21T01:32:59;31.70;;;11.53;;
83117;SDS011;73000;51.784;4.660;2023-11-21T01:35:24;26.75;;;10.77;;
83117;SDS011;73000;51.784;4.660;2023-11-21T01:37:49;27.40;;;10.82;;
83117;SDS011;73000;51.784;4.660;2023-11-21T01:40:15;34.70;;;10.70;;
83117;SDS011;73000;51.784;4.660;2023-11-21T01:42:40;35.53;;;10.87;;
83117;SDS011;73000;51.784;4.660;2023-11-21T01:45:08;33.42;;;12.10;;
83117;SDS011;73000;51.784;4.660;2023-11-21T01:47:34;37.17;;;12.90;;
83117;SDS011;73000;51.784;4.660;2023-11-21T01:50:01;30.95;;;10.70;;
83117;SDS011;73000;51.784;4.660;2023-11-21T01:52:29;31.95;;;11.55;;
83117;SDS011;73000;51.784;4.660;2023-11-21T01:54:55;28.25;;;10.13;;
83117;SDS011;73000;51.784;4.660;2023-11-21T01:57:21;26.92;;;10.07;;
83117;SDS011;73000;51.784;4.660;2023-11-21T01:59:47;24.35;;;8.85;;
83117;SDS011;73000;51.784;4.660;2023-11-21T02:02:14;25.77;;;9.80;;
83117;SDS011;73000;51.784;4.660;2023-11-21T02:04:41;30.98;;;11.07;;
83117;SDS011;73000;51.784;4.660;2023-11-21T02:07:06;21.70;;;10.30;;
83117;SDS011;73000;51.784;4.660;2023-11-21T02:09:32;23.08;;;9.77;;
83117;SDS011;73000;51.784;4.660;2023-11-21T02:12:03;21.10;;;9.45;;
83117;SDS011;73000;51.784;4.660;2023-11-21T02:14:29;22.77;;;8.98;;
83117;SDS011;73000;51.784;4.660;2023-11-21T02:16:55;26.55;;;10.60;;
83117;SDS011;73000;51.784;4.660;2023-11-21T02:19:22;22.95;;;10.25;;
83117;SDS011;73000;51.784;4.660;2023-11-21T02:21:50;25.67;;;10.10;;
83117;SDS011;73000;51.784;4.660;2023-11-21T02:24:18;25.65;;;10.40;;
83117;SDS011;73000;51.784;4.660;2023-11-21T02:26:45;21.77;;;9.52;;
83117;SDS011;73000;51.784;4.660;2023-11-21T02:29:11;24.05;;;9.70;;
83117;SDS011;73000;51.784;4.660;2023-11-21T02:31:37;23.20;;;9.98;;
83117;SDS011;73000;51.784;4.660;2023-11-21T02:34:10;19.42;;;9.18;;
83117;SDS011;73000;51.784;4.660;2023-11-21T02:36:38;21.98;;;8.77;;
83117;SDS011;73000;51.784;4.660;2023-11-21T02:39:03;26.20;;;9.35;;
83117;SDS011;73000;51.784;4.660;2023-11-21T02:41:29;21.20;;;8.88;;
83117;SDS011;73000;51.784;4.660;2023-11-21T02:43:54;19.90;;;8.60;;
83117;SDS011;73000;51.784;4.660;2023-11-21T02:46:19;22.03;;;8.80;;
83117;SDS011;73000;51.784;4.660;2023-11-21T02:48:44;24.10;;;9.60;;
83117;SDS011;73000;51.784;4.660;2023-11-21T02:51:10;18.67;;;8.07;;
83117;SDS011;73000;51.784;4.660;2023-11-21T02:53:35;20.02;;;9.48;;
83117;SDS011;73000;51.784;4.660;2023-11-21T02:56:00;20.20;;;10.00;;
83117;SDS011;73000;51.784;4.660;2023-11-21T02:58:26;22.73;;;9.40;;
83117;SDS011;73000;51.784;4.660;2023-11-21T03:00:51;18.33;;;8.00;;
83117;SDS011;73000;51.784;4.660;2023-11-21T03:03:16;21.42;;;9.45;;
83117;SDS011;73000;51.784;4.660;2023-11-21T03:05:42;23.17;;;7.80;;
83117;SDS011;73000;51.784;4.660;2023-11-21T03:08:07;22.10;;;9.00;;
83117;SDS011;73000;51.784;4.660;2023-11-21T03:10:33;20.30;;;8.27;;
83117;SDS011;73000;51.784;4.660;2023-11-21T03:12:58;19.55;;;7.47;;
83117;SDS011;73000;51.784;4.660;2023-11-21T03:15:23;17.10;;;7.88;;
83117;SDS011;73000;51.784;4.660;2023-11-21T03:17:49;17.25;;;7.38;;
83117;SDS011;73000;51.784;4.660;2023-11-21T03:20:14;19.25;;;8.55;;
83117;SDS011;73000;51.784;4.660;2023-11-21T03:22:41;18.73;;;7.75;;
83117;SDS011;73000;51.784;4.660;2023-11-21T03:25:07;18.73;;;8.65;;
83117;SDS011;73000;51.784;4.660;2023-11-21T03:27:35;21.10;;;8.65;;
83117;SDS011;73000;51.784;4.660;2023-11-21T03:30:01;20.48;;;10.20;;
83117;SDS011;73000;51.784;4.660;2023-11-21T03:32:28;18.05;;;7.32;;
83117;SDS011;73000;51.784;4.660;2023-11-21T03:34:57;19.43;;;8.33;;
83117;SDS011;73000;51.784;4.660;2023-11-21T03:37:23;17.13;;;8.68;;
83117;SDS011;73000;51.784;4.660;2023-11-21T03:39:49;18.60;;;8.07;;
83117;SDS011;73000;51.784;4.660;2023-11-21T03:42:15;17.63;;;7.70;;
83117;SDS011;73000;51.784;4.660;2023-11-21T03:44:40;18.30;;;8.30;;
83117;SDS011;73000;51.784;4.660;2023-11-21T03:47:05;16.83;;;7.63;;
83117;SDS011;73000;51.784;4.660;2023-11-21T03:49:30;17.20;;;7.03;;
83117;SDS011;73000;51.784;4.660;2023-11-21T03:51:56;18.20;;;7.60;;
83117;SDS011;73000;51.784;4.660;2023-11-21T03:54:21;14.63;;;7.30;;
83117;SDS011;73000;51.784;4.660;2023-11-21T03:56:46;19.10;;;7.70;;
83117;SDS011;73000;51.784;4.660;2023-11-21T03:59:12;15.00;;;7.17;;
83117;SDS011;73000;51.784;4.660;2023-11-21T04:01:37;18.27;;;8.23;;
83117;SDS011;73000;51.784;4.660;2023-11-21T04:04:02;16.33;;;8.55;;
83117;SDS011;73000;51.784;4.660;2023-11-21T04:06:28;15.98;;;8.50;;
83117;SDS011;73000;51.784;4.660;2023-11-21T04:08:53;17.35;;;7.68;;
83117;SDS011;73000;51.784;4.660;2023-11-21T04:11:19;18.45;;;8.32;;
83117;SDS011;73000;51.784;4.660;2023-11-21T04:13:44;18.83;;;7.83;;
83117;SDS011;73000;51.784;4.660;2023-11-21T04:16:11;22.85;;;7.70;;
83117;SDS011;73000;51.784;4.660;2023-11-21T04:18:37;19.63;;;7.97;;
83117;SDS011;73000;51.784;4.660;2023-11-21T04:21:04;19.48;;;8.00;;
83117;SDS011;73000;51.784;4.660;2023-11-21T04:23:30;15.18;;;7.25;;
83117;SDS011;73000;51.784;4.660;2023-11-21T04:25:56;14.38;;;6.88;;
83117;SDS011;73000;51.784;4.660;2023-11-21T04:28:22;14.48;;;7.18;;
83117;SDS011;73000;51.784;4.660;2023-11-21T04:30:49;13.38;;;6.78;;
83117;SDS011;73000;51.784;4.660;2023-11-21T04:33:15;19.30;;;7.07;;
83117;SDS011;73000;51.784;4.660;2023-11-21T04:35:41;13.23;;;6.88;;
83117;SDS011;73000;51.784;4.660;2023-11-21T04:38:06;16.52;;;7.80;;
83117;SDS011;73000;51.784;4.660;2023-11-21T04:40:31;18.60;;;6.82;;
83117;SDS011;73000;51.784;4.660;2023-11-21T04:42:57;22.07;;;7.53;;
83117;SDS011;73000;51.784;4.660;2023-11-21T04:45:22;14.97;;;6.53;;
83117;SDS011;73000;51.784;4.660;2023-11-21T04:47:47;19.73;;;6.88;;
83117;SDS011;73000;51.784;4.660;2023-11-21T04:50:12;17.50;;;6.50;;
83117;SDS011;73000;51.784;4.660;2023-11-21T04:52:38;18.90;;;7.95;;
83117;SDS011;73000;51.784;4.660;2023-11-21T04:55:04;23.33;;;7.15;;
83117;SDS011;73000;51.784;4.660;2023-11-21T04:57:31;17.92;;;6.88;;
83117;SDS011;73000;51.784;4.660;2023-11-21T04:59:57;17.67;;;6.63;;
83117;SDS011;73000;51.784;4.660;2023-11-21T05:02:22;16.45;;;6.45;;
83117;SDS011;73000;51.784;4.660;2023-11-21T05:04:48;17.43;;;6.83;;
83117;SDS011;73000;51.784;4.660;2023-11-21T05:07:13;16.50;;;7.57;;
83117;SDS011;73000;51.784;4.660;2023-11-21T05:09:42;18.05;;;7.82;;
83117;SDS011;73000;51.784;4.660;2023-11-21T05:12:10;18.02;;;6.50;;
83117;SDS011;73000;51.784;4.660;2023-11-21T05:14:36;19.17;;;7.10;;
83117;SDS011;73000;51.784;4.660;2023-11-21T05:17:01;20.93;;;7.70;;
83117;SDS011;73000;51.784;4.660;2023-11-21T05:19:27;19.33;;;7.95;;
83117;SDS011;73000;51.784;4.660;2023-11-21T05:21:53;20.85;;;8.05;;
83117;SDS011;73000;51.784;4.660;2023-11-21T05:24:19;24.87;;;8.73;;
83117;SDS011;73000;51.784;4.660;2023-11-21T05:26:44;20.70;;;7.73;;
83117;SDS011;73000;51.784;4.660;2023-11-21T05:29:09;18.80;;;8.90;;
83117;SDS011;73000;51.784;4.660;2023-11-21T05:31:35;26.58;;;9.68;;
83117;SDS011;73000;51.784;4.660;2023-11-21T05:34:01;22.02;;;8.25;;
83117;SDS011;73000;51.784;4.660;2023-11-21T05:36:26;23.13;;;8.98;;
83117;SDS011;73000;51.784;4.660;2023-11-21T05:38:52;18.95;;;8.32;;
83117;SDS011;73000;51.784;4.660;2023-11-21T05:41:17;23.70;;;9.10;;
83117;SDS011;73000;51.784;4.660;2023-11-21T05:43:42;22.90;;;8.98;;
83117;SDS011;73000;51.784;4.660;2023-11-21T05:46:08;17.50;;;8.30;;
83117;SDS011;73000;51.784;4.660;2023-11-21T05:48:34;21.30;;;9.15;;
83117;SDS011;73000;51.784;4.660;2023-11-21T05:51:01;16.05;;;7.63;;
83117;SDS011;73000;51.784;4.660;2023-11-21T05:53:27;20.27;;;8.70;;
83117;SDS011;73000;51.784;4.660;2023-11-21T05:55:52;21.30;;;7.30;;
83117;SDS011;73000;51.784;4.660;2023-11-21T05:58:17;19.93;;;8.63;;
83117;SDS011;73000;51.784;4.660;2023-11-21T06:00:43;20.57;;;9.17;;
83117;SDS011;73000;51.784;4.660;2023-11-21T06:03:08;23.55;;;8.02;;
83117;SDS011;73000;51.784;4.660;2023-11-21T06:05:33;21.83;;;8.45;;
83117;SDS011;73000;51.784;4.660;2023-11-21T06:07:59;20.40;;;8.20;;
83117;SDS011;73000;51.784;4.660;2023-11-21T06:10:25;19.55;;;8.27;;
83117;SDS011;73000;51.784;4.660;2023-11-21T06:12:51;16.42;;;7.80;;
83117;SDS011;73000;51.784;4.660;2023-11-21T06:15:17;19.90;;;7.28;;
83117;SDS011;73000;51.784;4.660;2023-11-21T06:17:45;21.13;;;7.63;;
83117;SDS011;73000;51.784;4.660;2023-11-21T06:20:14;12.45;;;6.32;;
83117;SDS011;73000;51.784;4.660;2023-11-21T06:22:44;16.52;;;6.95;;
83117;SDS011;73000;51.784;4.660;2023-11-21T06:25:13;19.15;;;8.48;;
83117;SDS011;73000;51.784;4.660;2023-11-21T06:27:42;17.20;;;7.45;;
83117;SDS011;73000;51.784;4.660;2023-11-21T06:30:12;18.48;;;8.15;;
83117;SDS011;73000;51.784;4.660;2023-11-21T06:32:40;18.08;;;9.07;;
83117;SDS011;73000;51.784;4.660;2023-11-21T06:35:06;15.30;;;8.45;;
83117;SDS011;73000;51.784;4.660;2023-11-21T06:37:33;16.90;;;7.95;;
83117;SDS011;73000;51.784;4.660;2023-11-21T06:39:59;15.15;;;6.90;;
83117;SDS011;73000;51.784;4.660;2023-11-21T06:42:25;13.93;;;7.18;;
83117;SDS011;73000;51.784;4.660;2023-11-21T06:44:51;20.50;;;7.93;;
83117;SDS011;73000;51.784;4.660;2023-11-21T06:47:18;17.15;;;7.10;;
83117;SDS011;73000;51.784;4.660;2023-11-21T06:49:45;14.75;;;6.95;;
83117;SDS011;73000;51.784;4.660;2023-11-21T06:52:12;17.13;;;7.88;;
83117;SDS011;73000;51.784;4.660;2023-11-21T06:54:38;14.07;;;7.13;;
83117;SDS011;73000;51.784;4.660;2023-11-21T06:57:03;16.60;;;7.27;;
83117;SDS011;73000;51.784;4.660;2023-11-21T06:59:28;15.27;;;6.95;;
83117;SDS011;73000;51.784;4.660;2023-11-21T07:01:54;13.13;;;6.87;;
83117;SDS011;73000;51.784;4.660;2023-11-21T07:04:19;16.95;;;7.57;;
83117;SDS011;73000;51.784;4.660;2023-11-21T07:06:45;19.00;;;7.82;;
83117;SDS011;73000;51.784;4.660;2023-11-21T07:09:10;16.10;;;7.97;;
83117;SDS011;73000;51.784;4.660;2023-11-21T07:11:36;16.38;;;6.57;;
83117;SDS011;73000;51.784;4.660;2023-11-21T07:14:03;15.73;;;6.22;;
83117;SDS011;73000;51.784;4.660;2023-11-21T07:16:32;18.75;;;6.57;;
83117;SDS011;73000;51.784;4.660;2023-11-21T07:18:59;14.88;;;6.97;;
83117;SDS011;73000;51.784;4.660;2023-11-21T07:21:25;13.97;;;6.43;;
83117;SDS011;73000;51.784;4.660;2023-11-21T07:23:50;18.60;;;6.47;;
83117;SDS011;73000;51.784;4.660;2023-11-21T07:26:15;13.10;;;5.73;;
83117;SDS011;73000;51.784;4.660;2023-11-21T07:28:40;11.83;;;6.00;;
83117;SDS011;73000;51.784;4.660;2023-11-21T07:31:06;23.33;;;7.53;;
83117;SDS011;73000;51.784;4.660;2023-11-21T07:33:31;15.07;;;6.50;;
83117;SDS011;73000;51.784;4.660;2023-11-21T07:35:56;15.25;;;6.60;;
83117;SDS011;73000;51.784;4.660;2023-11-21T07:38:22;16.53;;;6.80;;
83117;SDS011;73000;51.784;4.660;2023-11-21T07:40:47;15.43;;;6.37;;
83117;SDS011;73000;51.784;4.660;2023-11-21T07:43:12;16.07;;;6.93;;
83117;SDS011;73000;51.784;4.660;2023-11-21T07:45:37;16.77;;;8.53;;
83117;SDS011;73000;51.784;4.660;2023-11-21T07:48:03;11.93;;;6.88;;
83117;SDS011;73000;51.784;4.660;2023-11-21T07:50:30;13.95;;;7.40;;
83117;SDS011;73000;51.784;4.660;2023-11-21T07:52:55;16.67;;;7.95;;
83117;SDS011;73000;51.784;4.660;2023-11-21T07:55:21;20.75;;;8.00;;
83117;SDS011;73000;51.784;4.660;2023-11-21T07:57:46;17.25;;;8.18;;
83117;SDS011;73000;51.784;4.660;2023-11-21T08:00:12;13.98;;;7.50;;
83117;SDS011;73000;51.784;4.660;2023-11-21T08:02:41;20.13;;;7.90;;
83117;SDS011;73000;51.784;4.660;2023-11-21T08:05:07;16.10;;;7.57;;
83117;SDS011;73000;51.784;4.660;2023-11-21T08:07:33;20.58;;;7.43;;
83117;SDS011;73000;51.784;4.660;2023-11-21T08:09:58;19.57;;;7.10;;
83117;SDS011;73000;51.784;4.660;2023-11-21T08:12:24;18.70;;;6.82;;
83117;SDS011;73000;51.784;4.660;2023-11-21T08:14:49;12.73;;;6.90;;
83117;SDS011;73000;51.784;4.660;2023-11-21T08:17:14;14.00;;;7.15;;
83117;SDS011;73000;51.784;4.660;2023-11-21T08:19:40;14.40;;;6.47;;
83117;SDS011;73000;51.784;4.660;2023-11-21T08:22:05;14.07;;;5.97;;
83117;SDS011;73000;51.784;4.660;2023-11-21T08:24:33;19.88;;;7.35;;
83117;SDS011;73000;51.784;4.660;2023-11-21T08:26:58;14.75;;;6.22;;
83117;SDS011;73000;51.784;4.660;2023-11-21T08:29:24;9.20;;;5.35;;
83117;SDS011;73000;51.784;4.660;2023-11-21T08:31:49;11.98;;;5.53;;
83117;SDS011;73000;51.784;4.660;2023-11-21T08:34:14;14.00;;;6.10;;
83117;SDS011;73000;51.784;4.660;2023-11-21T08:36:43;10.70;;;5.68;;
83117;SDS011;73000;51.784;4.660;2023-11-21T08:39:10;10.82;;;4.57;;
83117;SDS011;73000;51.784;4.660;2023-11-21T08:41:36;11.18;;;4.90;;
83117;SDS011;73000;51.784;4.660;2023-11-21T08:44:01;15.55;;;5.25;;
83117;SDS011;73000;51.784;4.660;2023-11-21T08:46:27;11.82;;;5.13;;
83117;SDS011;73000;51.784;4.660;2023-11-21T08:48:52;10.32;;;4.55;;
83117;SDS011;73000;51.784;4.660;2023-11-21T08:51:18;10.70;;;5.00;;
83117;SDS011;73000;51.784;4.660;2023-11-21T08:53:43;9.70;;;5.25;;
83117;SDS011;73000;51.784;4.660;2023-11-21T08:56:12;13.40;;;5.53;;
83117;SDS011;73000;51.784;4.660;2023-11-21T08:58:39;11.07;;;6.20;;
83117;SDS011;73000;51.784;4.660;2023-11-21T09:01:04;10.23;;;4.97;;
83117;SDS011;73000;51.784;4.660;2023-11-21T09:03:31;15.23;;;5.43;;
83117;SDS011;73000;51.784;4.660;2023-11-21T09:05:58;10.35;;;4.88;;
83117;SDS011;73000;51.784;4.660;2023-11-21T09:08:24;12.43;;;5.28;;
83117;SDS011;73000;51.784;4.660;2023-11-21T09:10:50;13.18;;;5.60;;
83117;SDS011;73000;51.784;4.660;2023-11-21T09:13:15;11.30;;;5.70;;
83117;SDS011;73000;51.784;4.660;2023-11-21T09:15:41;13.85;;;5.43;;
83117;SDS011;73000;51.784;4.660;2023-11-21T09:18:11;10.77;;;5.25;;
83117;SDS011;73000;51.784;4.660;2023-11-21T09:20:37;11.27;;;5.47;;
83117;SDS011;73000;51.784;4.660;2023-11-21T09:23:02;9.90;;;5.28;;
83117;SDS011;73000;51.784;4.660;2023-11-21T09:25:28;10.93;;;5.33;;
83117;SDS011;73000;51.784;4.660;2023-11-21T09:27:53;11.07;;;5.78;;
83117;SDS011;73000;51.784;4.660;2023-11-21T09:30:19;10.73;;;5.57;;
83117;SDS011;73000;51.784;4.660;2023-11-21T09:32:44;9.45;;;4.65;;
83117;SDS011;73000;51.784;4.660;2023-11-21T09:35:10;8.15;;;4.53;;
83117;SDS011;73000;51.784;4.660;2023-11-21T09:37:36;10.57;;;5.53;;
83117;SDS011;73000;51.784;4.660;2023-11-21T09:40:03;9.75;;;5.50;;
83117;SDS011;73000;51.784;4.660;2023-11-21T09:42:30;10.25;;;5.60;;
83117;SDS011;73000;51.784;4.660;2023-11-21T09:45:05;12.52;;;6.28;;
83117;SDS011;73000;51.784;4.660;2023-11-21T09:47:40;11.30;;;5.38;;
83117;SDS011;73000;51.784;4.660;2023-11-21T09:50:07;12.48;;;5.40;;
83117;SDS011;73000;51.784;4.660;2023-11-21T09:52:40;12.45;;;6.07;;
83117;SDS011;73000;51.784;4.660;2023-11-21T09:55:27;10.95;;;5.18;;
83117;SDS011;73000;51.784;4.660;2023-11-21T09:58:00;13.02;;;5.20;;
83117;SDS011;73000;51.784;4.660;2023-11-21T10:00:27;9.38;;;5.05;;
83117;SDS011;73000;51.784;4.660;2023-11-21T10:02:52;10.32;;;5.50;;
83117;SDS011;73000;51.784;4.660;2023-11-21T10:05:19;9.88;;;5.57;;
83117;SDS011;73000;51.784;4.660;2023-11-21T10:07:44;10.60;;;5.03;;
83117;SDS011;73000;51.784;4.660;2023-11-21T10:10:11;12.48;;;5.40;;
83117;SDS011;73000;51.784;4.660;2023-11-21T10:12:42;10.10;;;4.97;;
83117;SDS011;73000;51.784;4.660;2023-11-21T10:15:12;12.55;;;6.63;;
83117;SDS011;73000;51.784;4.660;2023-11-21T10:17:41;9.20;;;4.35;;
83117;SDS011;73000;51.784;4.660;2023-11-21T10:20:13;9.80;;;4.75;;
83117;SDS011;73000;51.784;4.660;2023-11-21T10:22:42;9.48;;;4.18;;
83117;SDS011;73000;51.784;4.660;2023-11-21T10:25:12;9.45;;;4.10;;
83117;SDS011;73000;51.784;4.660;2023-11-21T10:27:41;9.80;;;4.32;;
83117;SDS011;73000;51.784;4.660;2023-11-21T10:30:07;8.52;;;4.28;;
83117;SDS011;73000;51.784;4.660;2023-11-21T10:32:42;6.30;;;3.22;;
83117;SDS011;73000;51.784;4.660;2023-11-21T10:35:08;6.72;;;3.33;;
83117;SDS011;73000;51.784;4.660;2023-11-21T10:37:37;5.60;;;3.38;;
83117;SDS011;73000;51.784;4.660;2023-11-21T10:40:07;8.85;;;3.42;;
83117;SDS011;73000;51.784;4.660;2023-11-21T10:42:36;8.02;;;4.25;;
83117;SDS011;73000;51.784;4.660;2023-11-21T10:45:03;7.47;;;4.05;;
83117;SDS011;73000;51.784;4.660;2023-11-21T10:47:34;6.97;;;3.83;;
83117;SDS011;73000;51.784;4.660;2023-11-21T10:50:01;6.18;;;3.58;;
83117;SDS011;73000;51.784;4.660;2023-11-21T10:52:27;7.65;;;3.88;;
83117;SDS011;73000;51.784;4.660;2023-11-21T10:54:52;6.43;;;3.55;;
83117;SDS011;73000;51.784;4.660;2023-11-21T10:57:18;8.32;;;3.55;;
83117;SDS011;73000;51.784;4.660;2023-11-21T10:59:47;6.40;;;3.30;;
83117;SDS011;73000;51.784;4.660;2023-11-21T11:02:23;6.75;;;3.15;;
83117;SDS011;73000;51.784;4.660;2023-11-21T11:04:53;5.90;;;3.45;;
83117;SDS011;73000;51.784;4.660;2023-11-21T11:07:20;5.07;;;3.22;;
83117;SDS011;73000;51.784;4.660;2023-11-21T11:09:50;4.60;;;2.50;;
83117;SDS011;73000;51.784;4.660;2023-11-21T11:12:17;4.70;;;2.60;;
83117;SDS011;73000;51.784;4.660;2023-11-21T11:14:44;4.18;;;2.63;;
83117;SDS011;73000;51.784;4.660;2023-11-21T11:17:10;6.75;;;3.72;;
83117;SDS011;73000;51.784;4.660;2023-11-21T11:19:35;5.95;;;2.92;;
83117;SDS011;73000;51.784;4.660;2023-11-21T11:22:15;7.25;;;4.15;;
83117;SDS011;73000;51.784;4.660;2023-11-21T11:24:59;5.57;;;3.13;;
83117;SDS011;73000;51.784;4.660;2023-11-21T11:27:55;6.93;;;3.75;;
83117;SDS011;73000;51.784;4.660;2023-11-21T11:30:57;6.75;;;4.13;;
83117;SDS011;73000;51.784;4.660;2023-11-21T11:36:17;10.63;;;4.85;;
83117;SDS011;73000;51.784;4.660;2023-11-21T11:38:46;6.80;;;4.10;;
83117;SDS011;73000;51.784;4.660;2023-11-21T11:41:14;10.48;;;4.05;;
83117;SDS011;73000;51.784;4.660;2023-11-21T11:43:53;7.03;;;3.33;;
83117;SDS011;73000;51.784;4.660;2023-11-21T11:46:19;9.98;;;4.10;;
83117;SDS011;73000;51.784;4.660;2023-11-21T11:48:46;8.15;;;3.47;;
83117;SDS011;73000;51.784;4.660;2023-11-21T11:51:28;7.35;;;3.53;;
83117;SDS011;73000;51.784;4.660;2023-11-21T11:53:53;8.52;;;4.00;;
83117;SDS011;73000;51.784;4.660;2023-11-21T11:56:26;8.23;;;4.28;;
83117;SDS011;73000;51.784;4.660;2023-11-21T11:58:55;9.45;;;4.45;;
83117;SDS011;73000;51.784;4.660;2023-11-21T12:01:23;10.43;;;4.63;;
83117;SDS011;73000;51.784;4.660;2023-11-21T12:06:42;10.48;;;4.95;;
83117;SDS011;73000;51.784;4.660;2023-11-21T12:09:12;10.98;;;4.97;;
83117;SDS011;73000;51.784;4.660;2023-11-21T12:11:43;10.43;;;4.95;;
83117;SDS011;73000;51.784;4.660;2023-11-21T12:14:09;14.25;;;5.70;;
83117;SDS011;73000;51.784;4.660;2023-11-21T12:16:34;12.18;;;5.95;;
83117;SDS011;73000;51.784;4.660;2023-11-21T12:19:00;15.25;;;6.90;;
83117;SDS011;73000;51.784;4.660;2023-11-21T12:21:25;13.10;;;5.32;;
83117;SDS011;73000;51.784;4.660;2023-11-21T12:23:51;13.15;;;5.90;;
83117;SDS011;73000;51.784;4.660;2023-11-21T12:26:16;13.20;;;5.73;;
83117;SDS011;73000;51.784;4.660;2023-11-21T12:28:42;11.80;;;5.28;;
83117;SDS011;73000;51.784;4.660;2023-11-21T12:31:08;12.90;;;5.47;;
83117;SDS011;73000;51.784;4.660;2023-11-21T12:33:34;12.55;;;6.03;;
83117;SDS011;73000;51.784;4.660;2023-11-21T12:36:02;13.82;;;6.25;;
83117;SDS011;73000;51.784;4.660;2023-11-21T12:38:34;12.18;;;6.72;;
83117;SDS011;73000;51.784;4.660;2023-11-21T12:41:00;15.43;;;6.47;;
83117;SDS011;73000;51.784;4.660;2023-11-21T12:43:25;12.35;;;5.72;;
83117;SDS011;73000;51.784;4.660;2023-11-21T12:45:51;12.80;;;5.07;;
83117;SDS011;73000;51.784;4.660;2023-11-21T12:48:31;11.38;;;5.95;;
83117;SDS011;73000;51.784;4.660;2023-11-21T12:50:56;13.20;;;6.53;;
83117;SDS011;73000;51.784;4.660;2023-11-21T12:53:25;14.38;;;6.13;;
83117;SDS011;73000;51.784;4.660;2023-11-21T12:55:50;14.82;;;7.35;;
83117;SDS011;73000;51.784;4.660;2023-11-21T12:58:16;14.65;;;6.53;;
83117;SDS011;73000;51.784;4.660;2023-11-21T13:00:45;16.98;;;7.25;;
83117;SDS011;73000;51.784;4.660;2023-11-21T13:03:12;15.82;;;6.50;;
83117;SDS011;73000;51.784;4.660;2023-11-21T13:05:41;13.98;;;6.20;;
83117;SDS011;73000;51.784;4.660;2023-11-21T13:08:09;15.45;;;6.63;;
83117;SDS011;73000;51.784;4.660;2023-11-21T13:10:38;13.30;;;5.88;;
83117;SDS011;73000;51.784;4.660;2023-11-21T13:13:06;14.57;;;6.78;;
83117;SDS011;73000;51.784;4.660;2023-11-21T13:15:34;15.00;;;6.70;;
83117;SDS011;73000;51.784;4.660;2023-11-21T13:18:03;15.27;;;5.95;;
83117;SDS011;73000;51.784;4.660;2023-11-21T13:20:28;14.40;;;6.32;;
83117;SDS011;73000;51.784;4.660;2023-11-21T13:22:55;14.27;;;5.90;;
83117;SDS011;73000;51.784;4.660;2023-11-21T13:25:28;14.32;;;7.13;;
83117;SDS011;73000;51.784;4.660;2023-11-21T13:27:54;13.80;;;5.60;;
83117;SDS011;73000;51.784;4.660;2023-11-21T13:30:20;13.48;;;5.90;;
83117;SDS011;73000;51.784;4.660;2023-11-21T13:32:51;15.02;;;6.22;;
83117;SDS011;73000;51.784;4.660;2023-11-21T13:35:17;15.15;;;6.63;;
83117;SDS011;73000;51.784;4.660;2023-11-21T13:37:47;12.55;;;6.55;;
83117;SDS011;73000;51.784;4.660;2023-11-21T13:40:15;10.77;;;5.45;;
83117;SDS011;73000;51.784;4.660;2023-11-21T13:42:44;14.25;;;5.72;;
83117;SDS011;73000;51.784;4.660;2023-11-21T13:45:10;16.10;;;5.85;;
83117;SDS011;73000;51.784;4.660;2023-11-21T13:47:37;14.45;;;6.50;;
83117;SDS011;73000;51.784;4.660;2023-11-21T13:50:03;12.50;;;5.72;;
83117;SDS011;73000;51.784;4.660;2023-11-21T13:52:29;11.65;;;5.75;;
83117;SDS011;73000;51.784;4.660;2023-11-21T13:54:58;11.13;;;5.60;;
83117;SDS011;73000;51.784;4.660;2023-11-21T13:57:23;14.50;;;5.72;;
83117;SDS011;73000;51.784;4.660;2023-11-21T13:59:49;12.68;;;5.70;;
83117;SDS011;73000;51.784;4.660;2023-11-21T14:02:14;12.60;;;5.83;;
83117;SDS011;73000;51.784;4.660;2023-11-21T14:04:42;12.00;;;6.57;;
83117;SDS011;73000;51.784;4.660;2023-11-21T14:07:21;12.18;;;5.97;;
83117;SDS011;73000;51.784;4.660;2023-11-21T14:09:56;13.45;;;6.13;;
83117;SDS011;73000;51.784;4.660;2023-11-21T14:12:23;15.10;;;6.32;;
83117;SDS011;73000;51.784;4.660;2023-11-21T14:14:49;11.82;;;5.82;;
83117;SDS011;73000;51.784;4.660;2023-11-21T14:17:14;14.60;;;6.32;;
83117;SDS011;73000;51.784;4.660;2023-11-21T14:19:39;12.32;;;5.32;;
83117;SDS011;73000;51.784;4.660;2023-11-21T14:22:08;14.48;;;6.40;;
83117;SDS011;73000;51.784;4.660;2023-11-21T14:24:34;15.38;;;6.22;;
83117;SDS011;73000;51.784;4.660;2023-11-21T14:27:00;11.88;;;6.30;;
83117;SDS011;73000;51.784;4.660;2023-11-21T14:29:25;13.43;;;5.82;;
83117;SDS011;73000;51.784;4.660;2023-11-21T14:31:52;13.75;;;7.25;;
83117;SDS011;73000;51.784;4.660;2023-11-21T14:34:21;14.02;;;6.38;;
83117;SDS011;73000;51.784;4.660;2023-11-21T14:36:46;12.52;;;5.85;;
83117;SDS011;73000;51.784;4.660;2023-11-21T14:39:12;13.75;;;6.85;;